createdAt,value
2019-01-16T00:00:38.095Z,80.15
2019-01-16T00:03:19.409Z,78.78
2019-01-16T00:05:58.968Z,79.34
2019-01-16T00:08:49.380Z,78.99
2019-01-16T00:11:25.324Z,78.72
2019-01-16T00:14:03.509Z,79.03
2019-01-16T00:16:40.009Z,78.57
2019-01-16T00:19:31.311Z,79.32
2019-01-16T00:22:13.723Z,77.91
2019-01-16T00:24:56.060Z,77.10
2019-01-16T00:27:43.308Z,77.43
2019-01-16T00:30:25.434Z,78.17
2019-01-16T00:33:02.018Z,78.11
2019-01-16T00:35:34.489Z,77.42
2019-01-16T00:38:12.403Z,77.31
2019-01-16T00:40:57.798Z,77.28
2019-01-16T00:43:47.953Z,77.51
2019-01-16T00:46:20.469Z,77.34
2019-01-16T00:49:04.800Z,77.03
2019-01-16T00:51:46.192Z,76.84
2019-01-16T00:54:34.160Z,76.40
2019-01-16T00:57:11.703Z,76.84
2019-01-16T00:59:58.084Z,76.55
2019-01-16T01:02:38.572Z,76.15
2019-01-16T01:05:25.901Z,76.26
2019-01-16T01:07:58.373Z,76.18
2019-01-16T01:10:44.765Z,75.93
2019-01-16T01:13:30.429Z,75.75
2019-01-16T01:16:18.636Z,76.53
2019-01-16T01:18:56.780Z,76.66
2019-01-16T01:21:45.168Z,75.61
2019-01-16T01:24:31.527Z,75.66
2019-01-16T01:27:18.796Z,75.22
2019-01-16T01:29:52.892Z,74.94
2019-01-16T01:32:33.684Z,75.13
2019-01-16T01:35:20.084Z,76.24
2019-01-16T01:37:52.602Z,76.68
2019-01-16T01:40:25.313Z,77.17
2019-01-16T01:42:57.851Z,77.10
2019-01-16T01:45:41.370Z,77.06
2019-01-16T01:48:22.521Z,75.71
2019-01-16T01:50:56.920Z,76.14
2019-01-16T01:53:46.180Z,75.95
2019-01-16T01:56:28.685Z,76.31
2019-01-16T01:59:07.940Z,76.07
2019-01-16T02:02:00.356Z,76.24
2019-01-16T02:04:36.096Z,76.33
2019-01-16T02:07:18.257Z,76.53
2019-01-16T02:09:56.352Z,76.00
2019-01-16T02:12:28.876Z,76.56
2019-01-16T02:15:07.700Z,76.78
2019-01-16T02:17:38.067Z,76.68
2019-01-16T02:20:23.782Z,75.83
2019-01-16T02:23:12.984Z,74.85
2019-01-16T02:25:51.015Z,76.26
2019-01-16T02:28:23.428Z,75.53
2019-01-16T02:31:10.778Z,75.54
2019-01-16T02:33:43.332Z,76.65
2019-01-16T02:36:17.458Z,76.92
2019-01-16T02:38:50.657Z,75.45
2019-01-16T02:41:21.037Z,75.39
2019-01-16T02:43:55.493Z,76.25
2019-01-16T02:46:42.857Z,75.58
2019-01-16T02:49:29.243Z,75.42
2019-01-16T02:52:01.613Z,75.83
2019-01-16T02:54:54.084Z,75.31
2019-01-16T02:57:41.407Z,74.73
2019-01-16T03:00:15.178Z,75.44
2019-01-16T03:02:54.948Z,76.18
2019-01-16T03:05:40.637Z,76.98
2019-01-16T03:08:16.265Z,76.58
2019-01-16T03:10:53.661Z,76.65
2019-01-16T03:13:30.008Z,75.99
2019-01-16T03:16:17.409Z,76.18
2019-01-16T03:18:49.894Z,76.16
2019-01-16T03:21:34.737Z,75.37
2019-01-16T03:24:22.069Z,76.47
2019-01-16T03:26:54.697Z,76.98
2019-01-16T03:29:38.885Z,75.46
2019-01-16T03:32:26.109Z,76.94
2019-01-16T03:34:58.594Z,76.83
2019-01-16T03:37:44.981Z,75.63
2019-01-16T03:40:17.422Z,75.26
2019-01-16T03:43:03.817Z,75.04
2019-01-16T03:45:43.443Z,75.27
2019-01-16T03:48:22.692Z,74.93
2019-01-16T03:51:14.150Z,75.68
2019-01-16T03:53:46.803Z,75.53
2019-01-16T03:56:29.692Z,75.03
2019-01-16T03:59:15.193Z,76.05
2019-01-16T04:02:01.578Z,76.62
2019-01-16T04:04:42.120Z,77.08
2019-01-16T04:07:18.672Z,76.94
2019-01-16T04:09:49.044Z,77.87
2019-01-16T04:12:38.238Z,76.14
2019-01-16T04:15:10.816Z,76.47
2019-01-16T04:17:51.061Z,77.56
2019-01-16T04:20:29.334Z,78.29
2019-01-16T04:23:16.581Z,78.18
2019-01-16T04:25:48.981Z,78.03
2019-01-16T04:28:27.054Z,77.64
2019-01-16T04:31:17.325Z,76.03
2019-01-16T04:33:56.372Z,78.53
2019-01-16T04:36:42.728Z,79.10
2019-01-16T04:39:25.284Z,80.20
2019-01-16T04:42:00.396Z,79.51
2019-01-16T04:44:36.166Z,79.95
2019-01-16T04:47:14.892Z,80.67
2019-01-16T04:49:51.060Z,80.34
2019-01-16T04:52:39.224Z,80.34
2019-01-16T04:55:16.770Z,81.31
2019-01-16T04:57:49.373Z,80.99
2019-01-16T05:00:28.645Z,81.34
2019-01-16T05:03:09.711Z,80.87
2019-01-16T05:05:57.890Z,80.40
2019-01-16T05:08:30.586Z,80.56
2019-01-16T05:11:10.874Z,80.17
2019-01-16T05:13:43.571Z,79.68
2019-01-16T05:16:19.312Z,79.63
2019-01-16T05:19:07.308Z,79.44
2019-01-16T05:21:39.983Z,79.91
2019-01-16T05:24:15.717Z,79.28
2019-01-16T05:27:00.530Z,78.21
2019-01-16T05:29:49.760Z,78.36
2019-01-16T05:32:41.009Z,77.76
2019-01-16T05:35:28.285Z,78.28
2019-01-16T05:38:06.727Z,78.39
2019-01-16T05:40:37.141Z,77.82
2019-01-16T05:43:18.574Z,77.49
2019-01-16T05:46:02.264Z,76.81
2019-01-16T05:48:40.333Z,76.94
2019-01-16T05:51:12.971Z,76.75
2019-01-16T05:54:02.345Z,76.94
2019-01-16T05:56:46.925Z,76.56
2019-01-16T05:59:25.553Z,77.01
2019-01-16T06:02:12.009Z,77.29
2019-01-16T06:04:44.699Z,76.40
2019-01-16T06:07:23.032Z,76.37
2019-01-16T06:10:11.496Z,75.90
2019-01-16T06:12:44.086Z,76.07
2019-01-16T06:15:20.338Z,75.42
2019-01-16T06:18:05.809Z,75.39
2019-01-16T06:20:53.170Z,75.57
2019-01-16T06:23:41.568Z,75.64
2019-01-16T06:26:17.894Z,73.46
2019-01-16T06:29:09.384Z,75.24
2019-01-16T06:31:42.154Z,75.62
2019-01-16T06:34:20.869Z,75.69
2019-01-16T06:36:59.834Z,76.44
2019-01-16T06:39:50.307Z,76.21
2019-01-16T06:42:22.937Z,75.85
2019-01-16T06:45:09.402Z,75.89
2019-01-16T06:47:47.463Z,76.97
2019-01-16T06:50:37.830Z,78.14
2019-01-16T06:53:27.278Z,78.72
2019-01-16T06:56:16.663Z,79.58
2019-01-16T06:59:04.166Z,79.84
2019-01-16T07:01:38.567Z,80.59
2019-01-16T07:04:22.182Z,80.62
2019-01-16T07:07:01.840Z,82.45
2019-01-16T07:09:34.390Z,82.64
2019-01-16T07:12:23.747Z,83.47
2019-01-16T07:15:08.670Z,83.41
2019-01-16T07:17:45.722Z,83.01
2019-01-16T07:20:34.094Z,84.75
2019-01-16T07:23:21.438Z,84.25
2019-01-16T07:25:53.978Z,84.11
2019-01-16T07:28:31.557Z,82.99
2019-01-16T07:31:10.708Z,83.65
2019-01-16T07:33:58.055Z,83.83
2019-01-16T07:36:30.639Z,84.12
2019-01-16T07:39:10.429Z,83.99
2019-01-16T07:41:58.823Z,82.79
2019-01-16T07:44:38.323Z,83.87
2019-01-16T07:47:24.782Z,84.17
2019-01-16T07:50:06.009Z,84.30
2019-01-16T07:52:45.822Z,84.18
2019-01-16T07:55:24.645Z,84.35
2019-01-16T07:58:01.417Z,84.98
2019-01-16T08:00:34.134Z,85.15
2019-01-16T08:03:13.670Z,85.25
2019-01-16T08:05:46.294Z,85.63
2019-01-16T08:08:22.815Z,85.50
2019-01-16T08:11:11.283Z,84.21
2019-01-16T08:16:22.448Z,84.52
2019-01-16T08:19:04.027Z,84.28
2019-01-16T08:21:49.903Z,84.89
2019-01-16T08:24:28.156Z,85.38
2019-01-16T08:27:14.639Z,84.95
2019-01-16T08:29:56.750Z,84.76
2019-01-16T08:32:29.434Z,84.93
2019-01-16T08:35:02.103Z,85.27
2019-01-16T08:37:52.532Z,84.84
2019-01-16T08:40:40.882Z,84.97
2019-01-16T08:43:31.215Z,85.93
2019-01-16T08:46:03.686Z,86.38
2019-01-16T08:48:50.158Z,86.65
2019-01-16T08:51:22.872Z,86.05
2019-01-16T08:54:14.203Z,85.96
2019-01-16T08:56:57.800Z,86.36
2019-01-16T08:59:30.459Z,85.59
2019-01-16T09:02:11.245Z,86.07
2019-01-16T09:04:43.742Z,86.39
2019-01-16T09:07:16.277Z,86.54
2019-01-16T09:09:48.989Z,86.64
2019-01-16T09:12:38.332Z,86.91
2019-01-16T09:15:11.376Z,86.70
2019-01-16T09:17:45.343Z,86.18
2019-01-16T09:20:25.621Z,86.12
2019-01-16T09:23:05.796Z,85.38
2019-01-16T09:25:41.242Z,84.57
2019-01-16T09:28:24.249Z,83.09
2019-01-16T09:31:13.570Z,82.84
2019-01-16T09:34:00.882Z,82.75
2019-01-16T09:36:37.189Z,82.97
2019-01-16T09:39:15.825Z,82.94
2019-01-16T09:42:03.994Z,81.37
2019-01-16T09:44:50.441Z,81.26
2019-01-16T09:47:31.855Z,80.43
2019-01-16T09:50:20.165Z,80.22
2019-01-16T09:52:52.697Z,79.05
2019-01-16T09:55:25.336Z,79.08
2019-01-16T09:58:17.694Z,79.52
2019-01-16T10:01:09.931Z,80.67
2019-01-16T10:04:00.243Z,80.15
2019-01-16T10:06:37.291Z,79.54
2019-01-16T10:09:29.526Z,79.33
2019-01-16T10:12:16.740Z,78.55
2019-01-16T10:15:00.720Z,78.85
2019-01-16T10:17:33.332Z,77.93
2019-01-16T10:20:15.301Z,78.20
2019-01-16T10:22:51.942Z,76.14
2019-01-16T10:25:29.678Z,77.41
2019-01-16T10:28:12.264Z,77.96
2019-01-16T10:30:57.363Z,77.52
2019-01-16T10:33:46.635Z,77.47
2019-01-16T10:36:23.332Z,77.20
2019-01-16T10:38:55.843Z,77.23
2019-01-16T10:41:28.483Z,76.39
2019-01-16T10:44:01.022Z,75.99
2019-01-16T10:46:52.437Z,76.82
2019-01-16T10:49:37.788Z,76.48
2019-01-16T10:52:28.218Z,77.14
2019-01-16T10:55:00.910Z,77.12
2019-01-16T10:57:33.331Z,77.15
2019-01-16T11:00:20.675Z,76.85
2019-01-16T11:02:59.636Z,76.70
2019-01-16T11:05:36.050Z,76.92
2019-01-16T11:08:16.538Z,76.57
2019-01-16T11:11:01.763Z,76.47
2019-01-16T11:13:51.132Z,76.60
2019-01-16T11:16:38.697Z,76.19
2019-01-16T11:19:14.997Z,77.65
2019-01-16T11:21:47.575Z,76.19
2019-01-16T11:24:34.847Z,75.76
2019-01-16T11:27:17.431Z,76.13
2019-01-16T11:29:49.910Z,75.80
2019-01-16T11:32:24.644Z,75.76
2019-01-16T11:34:57.184Z,76.94
2019-01-16T11:37:37.147Z,77.20
2019-01-16T11:40:25.611Z,77.10
2019-01-16T11:42:58.086Z,75.51
2019-01-16T11:45:35.278Z,76.25
2019-01-16T11:48:22.559Z,76.45
2019-01-16T11:51:18.464Z,75.00
2019-01-16T11:53:58.334Z,75.71
2019-01-16T11:56:36.303Z,74.91
2019-01-16T11:59:15.391Z,75.26
2019-01-16T12:02:02.683Z,74.34
2019-01-16T12:04:49.882Z,74.83
2019-01-16T12:07:25.823Z,75.01
2019-01-16T12:09:58.576Z,74.67
2019-01-16T12:12:37.625Z,76.00
2019-01-16T12:15:10.400Z,75.75
2019-01-16T12:17:55.628Z,74.49
2019-01-16T12:20:28.262Z,74.73
2019-01-16T12:23:10.102Z,75.54
2019-01-16T12:25:46.212Z,74.00
2019-01-16T12:28:23.379Z,73.75
2019-01-16T12:30:59.656Z,73.46
2019-01-16T12:33:49.008Z,73.18
2019-01-16T12:36:33.164Z,73.58
2019-01-16T12:39:31.617Z,73.39
2019-01-16T12:42:13.255Z,73.17
2019-01-16T12:44:49.175Z,74.26
2019-01-16T12:47:19.664Z,73.83
2019-01-16T12:50:04.481Z,73.57
2019-01-16T12:52:44.551Z,73.53
2019-01-16T12:55:16.973Z,73.67
2019-01-16T12:58:03.459Z,71.64
2019-01-16T13:00:49.841Z,71.95
2019-01-16T13:03:38.233Z,71.10
2019-01-16T13:06:21.364Z,72.30
2019-01-16T13:08:58.427Z,71.64
2019-01-16T13:11:43.366Z,70.62
2019-01-16T13:14:30.180Z,71.50
2019-01-16T13:17:02.269Z,71.83
2019-01-16T13:19:34.850Z,71.39
2019-01-16T13:22:12.469Z,70.30
2019-01-16T13:24:45.056Z,71.39
2019-01-16T13:27:22.965Z,70.31
2019-01-16T13:30:04.621Z,70.15
2019-01-16T13:32:51.013Z,70.08
2019-01-16T13:35:23.498Z,70.35
2019-01-16T13:37:56.158Z,69.24
2019-01-16T13:40:44.433Z,70.37
2019-01-16T13:43:16.890Z,70.20
2019-01-16T13:45:58.931Z,71.02
2019-01-16T13:48:52.795Z,71.08
2019-01-16T13:51:27.322Z,70.16
2019-01-16T13:54:00.050Z,70.76
2019-01-16T13:56:38.589Z,70.52
2019-01-16T13:59:18.340Z,70.67
2019-01-16T14:01:51.929Z,70.77
2019-01-16T14:04:24.508Z,70.81
2019-01-16T14:07:11.821Z,70.16
2019-01-16T14:10:03.155Z,70.28
2019-01-16T14:12:50.451Z,69.61
2019-01-16T14:15:22.969Z,69.48
2019-01-16T14:18:05.954Z,71.45
2019-01-16T14:23:23.232Z,70.66
2019-01-16T14:26:02.494Z,69.65
2019-01-16T14:28:42.494Z,69.27
2019-01-16T14:31:25.224Z,69.39
2019-01-16T14:34:11.628Z,70.53
2019-01-16T14:36:44.067Z,69.28
2019-01-16T14:39:20.820Z,70.65
2019-01-16T14:41:57.893Z,71.19
2019-01-16T14:44:36.205Z,71.74
2019-01-16T14:47:08.704Z,71.77
2019-01-16T14:49:55.106Z,71.95
2019-01-16T14:52:28.787Z,71.95
2019-01-16T14:55:06.135Z,71.35
2019-01-16T14:57:40.232Z,71.30
2019-01-16T15:00:30.852Z,71.61
2019-01-16T15:03:03.306Z,72.10
2019-01-16T15:05:49.673Z,72.22
2019-01-16T15:08:22.224Z,72.98
2019-01-16T15:11:00.001Z,73.43
2019-01-16T15:13:45.309Z,73.70
2019-01-16T15:16:17.826Z,75.10
2019-01-16T15:19:06.176Z,75.87
2019-01-16T15:21:56.396Z,76.26
2019-01-16T15:24:42.776Z,76.06
2019-01-16T15:27:15.364Z,76.80
2019-01-16T15:29:55.240Z,75.71
2019-01-16T15:32:27.721Z,76.51
2019-01-16T15:35:09.736Z,77.68
2019-01-16T15:37:42.247Z,77.37
2019-01-16T15:40:22.656Z,78.37
2019-01-16T15:42:55.208Z,77.89
2019-01-16T15:45:32.831Z,78.85
2019-01-16T15:48:21.013Z,77.03
2019-01-16T15:51:10.244Z,77.20
2019-01-16T15:53:56.748Z,78.06
2019-01-16T15:56:40.557Z,77.61
2019-01-16T15:59:17.875Z,77.80
2019-01-16T16:01:50.323Z,77.87
2019-01-16T16:04:25.884Z,78.40
2019-01-16T16:07:08.280Z,77.75
2019-01-16T16:09:44.200Z,78.27
2019-01-16T16:12:20.988Z,78.45
2019-01-16T16:14:55.675Z,78.02
2019-01-16T16:17:37.761Z,76.73
2019-01-16T16:20:26.523Z,77.98
2019-01-16T16:23:01.867Z,78.31
2019-01-16T16:25:36.662Z,78.39
2019-01-16T16:28:22.119Z,78.80
2019-01-16T16:30:55.207Z,78.40
2019-01-16T16:33:44.621Z,78.87
2019-01-16T16:36:17.292Z,78.85
2019-01-16T16:39:00.140Z,78.39
2019-01-16T16:41:32.603Z,78.58
2019-01-16T16:44:11.945Z,79.34
2019-01-16T16:46:49.713Z,77.73
2019-01-16T16:49:28.408Z,78.26
2019-01-16T16:52:07.011Z,79.12
2019-01-16T16:54:53.372Z,78.82
2019-01-16T16:57:25.897Z,78.78
2019-01-16T17:00:06.528Z,79.66
2019-01-16T17:02:53.721Z,80.59
2019-01-16T17:05:26.283Z,81.69
2019-01-16T17:07:58.956Z,81.82
2019-01-16T17:10:31.552Z,82.24
2019-01-16T17:13:09.152Z,82.35
2019-01-16T17:16:00.472Z,82.71
2019-01-16T17:18:39.267Z,82.98
2019-01-16T17:21:24.328Z,82.79
2019-01-16T17:23:56.758Z,82.37
2019-01-16T17:26:29.420Z,82.33
2019-01-16T17:29:20.776Z,81.75
2019-01-16T17:31:58.517Z,81.46
2019-01-16T17:34:37.631Z,81.43
2019-01-16T17:37:10.205Z,81.26
2019-01-16T17:39:57.472Z,81.33
2019-01-16T17:42:34.347Z,80.88
2019-01-16T17:45:06.783Z,81.04
2019-01-16T17:47:46.015Z,81.03
2019-01-16T17:50:36.420Z,81.41
2019-01-16T17:53:27.815Z,81.80
2019-01-16T17:56:05.865Z,81.69
2019-01-16T17:58:38.384Z,81.08
2019-01-16T18:01:13.044Z,81.97
2019-01-16T18:04:00.328Z,82.13
2019-01-16T18:06:40.640Z,82.10
2019-01-16T18:09:22.459Z,81.08
2019-01-16T18:11:54.981Z,81.77
2019-01-16T18:14:35.414Z,81.72
2019-01-16T18:17:23.651Z,81.70
2019-01-16T18:19:56.207Z,82.08
2019-01-16T18:22:45.248Z,82.01
2019-01-16T18:25:31.040Z,82.36
2019-01-16T18:28:20.244Z,82.78
2019-01-16T18:30:52.645Z,83.01
2019-01-16T18:33:35.180Z,82.67
2019-01-16T18:36:15.847Z,82.62
2019-01-16T18:39:03.182Z,81.78
2019-01-16T18:41:44.465Z,81.77
2019-01-16T18:44:30.819Z,81.79
2019-01-16T18:47:17.260Z,81.87
2019-01-16T18:49:49.808Z,81.18
2019-01-16T18:52:39.608Z,82.08
2019-01-16T18:55:28.397Z,82.21
2019-01-16T18:58:07.292Z,82.57
2019-01-16T19:00:39.941Z,82.53
2019-01-16T19:03:12.605Z,82.13
2019-01-16T19:05:51.264Z,81.85
2019-01-16T19:08:41.648Z,81.84
2019-01-16T19:11:16.396Z,81.97
2019-01-16T19:13:53.656Z,81.96
2019-01-16T19:16:44.848Z,82.25
2019-01-16T19:19:28.201Z,81.99
2019-01-16T19:22:04.630Z,81.95
2019-01-16T19:24:51.757Z,81.84
2019-01-16T19:27:25.412Z,81.87
2019-01-16T19:30:16.595Z,82.13
2019-01-16T19:32:52.491Z,81.93
2019-01-16T19:35:38.867Z,81.78
2019-01-16T19:38:26.024Z,81.51
2019-01-16T19:41:15.257Z,81.93
2019-01-16T19:43:57.248Z,82.05
2019-01-16T19:46:41.615Z,82.19
2019-01-16T19:49:30.932Z,81.97
2019-01-16T19:52:19.250Z,82.02
2019-01-16T19:54:59.768Z,81.67
2019-01-16T19:57:36.164Z,81.30
2019-01-16T20:00:27.120Z,81.28
2019-01-16T20:03:14.805Z,81.21
2019-01-16T20:05:49.809Z,81.59
2019-01-16T20:08:28.137Z,81.47
2019-01-16T20:11:04.184Z,81.53
2019-01-16T20:13:51.551Z,81.35
2019-01-16T20:16:40.029Z,80.79
2019-01-16T20:19:12.884Z,80.13
2019-01-16T20:21:45.452Z,79.91
2019-01-16T20:24:31.824Z,79.53
2019-01-16T20:27:24.055Z,79.56
2019-01-16T20:30:16.220Z,79.33
2019-01-16T20:32:48.841Z,79.48
2019-01-16T20:35:31.788Z,79.73
2019-01-16T20:38:14.512Z,79.69
2019-01-16T20:40:47.049Z,79.71
2019-01-16T20:43:33.497Z,80.02
2019-01-16T20:46:12.192Z,79.32
2019-01-16T20:48:50.253Z,79.22
2019-01-16T20:51:32.415Z,79.33
2019-01-16T20:54:16.060Z,78.64
2019-01-16T20:56:51.276Z,78.92
2019-01-16T20:59:32.164Z,79.25
2019-01-16T21:02:08.343Z,79.81
2019-01-16T21:04:49.996Z,79.80
2019-01-16T21:07:32.591Z,79.87
2019-01-16T21:10:06.111Z,80.16
2019-01-16T21:12:55.416Z,80.46
2019-01-16T21:15:41.779Z,80.44
2019-01-16T21:18:26.040Z,79.98
2019-01-16T21:21:00.859Z,79.76
2019-01-16T21:23:41.697Z,79.08
2019-01-16T21:26:23.064Z,79.32
2019-01-16T21:29:13.301Z,79.81
2019-01-16T21:32:01.545Z,79.71
2019-01-16T21:34:40.032Z,80.17
2019-01-16T21:37:21.280Z,80.02
2019-01-16T21:40:03.757Z,80.23
2019-01-16T21:42:43.204Z,80.25
2019-01-16T21:45:30.473Z,80.33
2019-01-16T21:48:17.816Z,80.37
2019-01-16T21:51:01.265Z,80.48
2019-01-16T21:53:37.140Z,79.41
2019-01-16T21:56:13.275Z,79.42
2019-01-16T21:58:49.359Z,79.74
2019-01-16T22:01:21.900Z,79.22
2019-01-16T22:03:54.443Z,79.02
2019-01-16T22:06:27.004Z,79.12
2019-01-16T22:08:59.717Z,78.85
2019-01-16T22:11:32.088Z,78.92
2019-01-16T22:14:19.491Z,79.30
2019-01-16T22:17:00.876Z,78.39
2019-01-16T22:19:43.924Z,79.47
2019-01-16T22:22:28.689Z,78.86
2019-01-16T22:25:16.912Z,79.27
2019-01-16T22:27:56.807Z,79.52
2019-01-16T22:30:29.368Z,79.48
2019-01-16T22:33:15.760Z,80.47
2019-01-16T22:35:58.859Z,79.61
2019-01-16T22:38:41.124Z,80.08
2019-01-16T22:41:19.211Z,80.92
2019-01-16T22:44:01.713Z,80.82
2019-01-16T22:46:48.068Z,81.44
2019-01-16T22:49:26.456Z,81.29
2019-01-16T22:52:14.840Z,81.52
2019-01-16T22:54:55.888Z,82.23
2019-01-16T22:57:31.241Z,83.06
2019-01-16T23:00:03.714Z,83.63
2019-01-16T23:02:55.139Z,84.19
2019-01-16T23:05:37.824Z,84.55
2019-01-16T23:08:15.200Z,84.65
2019-01-16T23:10:52.204Z,85.02
2019-01-16T23:13:24.695Z,84.83
2019-01-16T23:16:11.072Z,84.16
2019-01-16T23:18:50.364Z,83.29
2019-01-16T23:21:28.795Z,81.87
2019-01-16T23:24:05.491Z,81.47
2019-01-16T23:26:56.690Z,80.92
2019-01-16T23:29:29.697Z,80.07
2019-01-16T23:32:20.855Z,80.36
2019-01-16T23:34:57.997Z,80.30
2019-01-16T23:37:44.343Z,79.88
2019-01-16T23:40:22.795Z,79.16
2019-01-16T23:43:10.704Z,79.41
2019-01-16T23:45:49.867Z,79.09
2019-01-16T23:48:27.024Z,79.58
2019-01-16T23:51:13.402Z,78.69
2019-01-16T23:53:59.801Z,78.94
2019-01-16T23:56:41.444Z,78.70
2019-01-16T23:59:33.922Z,78.78
